sensor_id;sensor_type;location;lat;lon;timestamp;temperature;humidity
5560;DHT22;2803;47.916;8.074;2023-03-12T00:01:09;5.50;99.90
5560;DHT22;2803;47.916;8.074;2023-03-12T00:03:36;5.70;99.90
5560;DHT22;2803;47.916;8.074;2023-03-12T00:06:02;5.70;99.90
5560;DHT22;2803;47.916;8.074;2023-03-12T00:08:29;5.80;99.90
5560;DHT22;2803;47.916;8.074;2023-03-12T00:10:56;5.70;99.90
5560;DHT22;2803;47.916;8.074;2023-03-12T00:13:24;5.70;99.90
5560;DHT22;2803;47.916;8.074;2023-03-12T00:15:50;5.60;99.90
5560;DHT22;2803;47.916;8.074;2023-03-12T00:18:17;5.50;99.90
5560;DHT22;2803;47.916;8.074;2023-03-12T00:20:52;5.60;99.90
5560;DHT22;2803;47.916;8.074;2023-03-12T00:23:19;5.80;99.90
5560;DHT22;2803;47.916;8.074;2023-03-12T00:25:45;5.60;99.90
5560;DHT22;2803;47.916;8.074;2023-03-12T00:28:12;5.40;99.90
5560;DHT22;2803;47.916;8.074;2023-03-12T00:30:40;5.40;99.90
5560;DHT22;2803;47.916;8.074;2023-03-12T00:33:08;5.40;99.90
5560;DHT22;2803;47.916;8.074;2023-03-12T00:35:36;5.20;99.90
5560;DHT22;2803;47.916;8.074;2023-03-12T00:38:03;5.60;99.90
5560;DHT22;2803;47.916;8.074;2023-03-12T00:40:30;5.50;99.90
5560;DHT22;2803;47.916;8.074;2023-03-12T00:42:56;5.80;99.90
5560;DHT22;2803;47.916;8.074;2023-03-12T00:45:23;5.90;99.90
5560;DHT22;2803;47.916;8.074;2023-03-12T00:47:51;5.90;99.90
5560;DHT22;2803;47.916;8.074;2023-03-12T00:50:18;6.00;99.90
5560;DHT22;2803;47.916;8.074;2023-03-12T00:52:45;6.10;99.90
5560;DHT22;2803;47.916;8.074;2023-03-12T00:55:11;6.20;99.90
5560;DHT22;2803;47.916;8.074;2023-03-12T00:57:38;6.00;99.90
5560;DHT22;2803;47.916;8.074;2023-03-12T01:00:05;6.00;99.90
5560;DHT22;2803;47.916;8.074;2023-03-12T01:02:35;6.10;99.90
5560;DHT22;2803;47.916;8.074;2023-03-12T01:05:04;6.00;99.90
5560;DHT22;2803;47.916;8.074;2023-03-12T01:07:31;5.80;99.90
5560;DHT22;2803;47.916;8.074;2023-03-12T01:09:58;5.90;99.90
5560;DHT22;2803;47.916;8.074;2023-03-12T01:12:24;5.80;99.90
5560;DHT22;2803;47.916;8.074;2023-03-12T01:14:51;6.10;99.90
5560;DHT22;2803;47.916;8.074;2023-03-12T01:17:18;6.10;99.90
5560;DHT22;2803;47.916;8.074;2023-03-12T01:19:44;6.20;99.90
5560;DHT22;2803;47.916;8.074;2023-03-12T01:22:12;6.20;99.90
5560;DHT22;2803;47.916;8.074;2023-03-12T01:24:39;6.10;99.90
5560;DHT22;2803;47.916;8.074;2023-03-12T01:27:06;6.30;99.90
5560;DHT22;2803;47.916;8.074;2023-03-12T01:29:32;6.30;99.90
5560;DHT22;2803;47.916;8.074;2023-03-12T01:31:59;6.40;99.90
5560;DHT22;2803;47.916;8.074;2023-03-12T01:34:26;6.40;99.90
5560;DHT22;2803;47.916;8.074;2023-03-12T01:36:52;6.50;99.90
5560;DHT22;2803;47.916;8.074;2023-03-12T01:39:21;6.00;99.90
5560;DHT22;2803;47.916;8.074;2023-03-12T01:41:47;6.30;99.90
5560;DHT22;2803;47.916;8.074;2023-03-12T01:44:14;6.30;99.90
5560;DHT22;2803;47.916;8.074;2023-03-12T01:46:41;6.50;99.90
5560;DHT22;2803;47.916;8.074;2023-03-12T01:49:10;6.50;99.90
5560;DHT22;2803;47.916;8.074;2023-03-12T01:51:41;6.50;99.90
5560;DHT22;2803;47.916;8.074;2023-03-12T01:54:11;6.60;99.90
5560;DHT22;2803;47.916;8.074;2023-03-12T01:56:40;6.70;99.90
5560;DHT22;2803;47.916;8.074;2023-03-12T01:59:11;6.50;99.90
5560;DHT22;2803;47.916;8.074;2023-03-12T02:01:40;6.60;99.90
5560;DHT22;2803;47.916;8.074;2023-03-12T02:04:07;6.70;99.90
5560;DHT22;2803;47.916;8.074;2023-03-12T02:06:37;6.70;99.90
5560;DHT22;2803;47.916;8.074;2023-03-12T02:09:06;6.70;99.90
5560;DHT22;2803;47.916;8.074;2023-03-12T02:11:33;6.70;99.90
5560;DHT22;2803;47.916;8.074;2023-03-12T02:14:01;6.70;99.90
5560;DHT22;2803;47.916;8.074;2023-03-12T02:16:28;6.80;99.90
5560;DHT22;2803;47.916;8.074;2023-03-12T02:18:56;7.00;99.90
5560;DHT22;2803;47.916;8.074;2023-03-12T02:21:29;6.90;99.90
5560;DHT22;2803;47.916;8.074;2023-03-12T02:24:02;6.80;99.90
5560;DHT22;2803;47.916;8.074;2023-03-12T02:26:32;6.90;99.90
5560;DHT22;2803;47.916;8.074;2023-03-12T02:29:00;7.00;99.90
5560;DHT22;2803;47.916;8.074;2023-03-12T02:31:30;7.10;99.90
5560;DHT22;2803;47.916;8.074;2023-03-12T02:33:58;7.00;99.90
5560;DHT22;2803;47.916;8.074;2023-03-12T02:36:25;7.00;99.90
5560;DHT22;2803;47.916;8.074;2023-03-12T02:38:53;7.00;99.90
5560;DHT22;2803;47.916;8.074;2023-03-12T02:41:21;6.80;99.90
5560;DHT22;2803;47.916;8.074;2023-03-12T02:43:57;6.70;99.90
5560;DHT22;2803;47.916;8.074;2023-03-12T02:46:26;6.50;99.90
5560;DHT22;2803;47.916;8.074;2023-03-12T02:48:53;6.40;99.90
5560;DHT22;2803;47.916;8.074;2023-03-12T02:51:20;6.20;99.90
5560;DHT22;2803;47.916;8.074;2023-03-12T02:53:47;6.40;99.90
5560;DHT22;2803;47.916;8.074;2023-03-12T02:56:19;6.40;99.90
5560;DHT22;2803;47.916;8.074;2023-03-12T02:58:46;6.40;99.90
5560;DHT22;2803;47.916;8.074;2023-03-12T03:01:14;6.50;99.90
5560;DHT22;2803;47.916;8.074;2023-03-12T03:03:40;6.50;99.90
5560;DHT22;2803;47.916;8.074;2023-03-12T03:06:07;6.50;99.90
5560;DHT22;2803;47.916;8.074;2023-03-12T03:08:34;6.60;99.90
5560;DHT22;2803;47.916;8.074;2023-03-12T03:11:00;6.50;99.90
5560;DHT22;2803;47.916;8.074;2023-03-12T03:13:29;5.90;99.90
5560;DHT22;2803;47.916;8.074;2023-03-12T03:15:55;6.00;99.90
5560;DHT22;2803;47.916;8.074;2023-03-12T03:18:25;5.80;99.90
5560;DHT22;2803;47.916;8.074;2023-03-12T03:20:55;5.40;99.90
5560;DHT22;2803;47.916;8.074;2023-03-12T03:23:22;4.70;99.90
5560;DHT22;2803;47.916;8.074;2023-03-12T03:25:48;4.80;99.90
5560;DHT22;2803;47.916;8.074;2023-03-12T03:28:17;5.10;99.90
5560;DHT22;2803;47.916;8.074;2023-03-12T03:30:43;5.60;99.90
5560;DHT22;2803;47.916;8.074;2023-03-12T03:33:10;6.00;99.90
5560;DHT22;2803;47.916;8.074;2023-03-12T03:35:38;6.00;99.90
5560;DHT22;2803;47.916;8.074;2023-03-12T03:38:05;6.20;99.90
5560;DHT22;2803;47.916;8.074;2023-03-12T03:40:32;6.40;99.90
5560;DHT22;2803;47.916;8.074;2023-03-12T03:42:58;6.40;99.90
5560;DHT22;2803;47.916;8.074;2023-03-12T03:45:25;6.40;99.90
5560;DHT22;2803;47.916;8.074;2023-03-12T03:47:51;6.50;99.90
5560;DHT22;2803;47.916;8.074;2023-03-12T03:50:19;6.70;99.90
5560;DHT22;2803;47.916;8.074;2023-03-12T03:52:46;6.60;99.90
5560;DHT22;2803;47.916;8.074;2023-03-12T03:55:13;6.60;99.90
5560;DHT22;2803;47.916;8.074;2023-03-12T03:57:40;6.70;99.90
5560;DHT22;2803;47.916;8.074;2023-03-12T04:00:07;6.80;99.90
5560;DHT22;2803;47.916;8.074;2023-03-12T04:02:38;6.80;99.90
5560;DHT22;2803;47.916;8.074;2023-03-12T04:05:05;6.80;99.90
5560;DHT22;2803;47.916;8.074;2023-03-12T04:07:32;6.60;99.90
5560;DHT22;2803;47.916;8.074;2023-03-12T04:10:00;6.50;99.90
5560;DHT22;2803;47.916;8.074;2023-03-12T04:12:26;6.50;99.90
5560;DHT22;2803;47.916;8.074;2023-03-12T04:14:54;6.50;99.90
5560;DHT22;2803;47.916;8.074;2023-03-12T04:17:20;6.30;99.90
5560;DHT22;2803;47.916;8.074;2023-03-12T04:19:47;6.50;99.90
5560;DHT22;2803;47.916;8.074;2023-03-12T04:22:13;6.50;99.90
5560;DHT22;2803;47.916;8.074;2023-03-12T04:24:40;6.40;99.90
5560;DHT22;2803;47.916;8.074;2023-03-12T04:27:08;6.40;99.90
5560;DHT22;2803;47.916;8.074;2023-03-12T04:29:34;6.40;99.90
5560;DHT22;2803;47.916;8.074;2023-03-12T04:32:04;6.50;99.90
5560;DHT22;2803;47.916;8.074;2023-03-12T04:34:30;6.50;99.90
5560;DHT22;2803;47.916;8.074;2023-03-12T04:36:57;6.60;99.90
5560;DHT22;2803;47.916;8.074;2023-03-12T04:39:23;6.80;99.90
5560;DHT22;2803;47.916;8.074;2023-03-12T04:41:50;6.80;99.90
5560;DHT22;2803;47.916;8.074;2023-03-12T04:44:18;6.90;99.90
5560;DHT22;2803;47.916;8.074;2023-03-12T04:46:45;6.70;99.90
5560;DHT22;2803;47.916;8.074;2023-03-12T04:49:11;6.60;99.90
5560;DHT22;2803;47.916;8.074;2023-03-12T04:51:38;6.80;99.90
5560;DHT22;2803;47.916;8.074;2023-03-12T04:54:05;6.60;99.90
5560;DHT22;2803;47.916;8.074;2023-03-12T04:56:31;6.60;99.90
5560;DHT22;2803;47.916;8.074;2023-03-12T04:58:58;6.80;99.90
5560;DHT22;2803;47.916;8.074;2023-03-12T05:01:27;6.90;99.90
5560;DHT22;2803;47.916;8.074;2023-03-12T05:03:55;6.70;99.90
5560;DHT22;2803;47.916;8.074;2023-03-12T05:06:22;6.70;99.90
5560;DHT22;2803;47.916;8.074;2023-03-12T05:08:49;6.80;99.90
5560;DHT22;2803;47.916;8.074;2023-03-12T05:11:16;6.80;99.90
5560;DHT22;2803;47.916;8.074;2023-03-12T05:13:43;6.80;99.90
5560;DHT22;2803;47.916;8.074;2023-03-12T05:16:11;6.70;99.90
5560;DHT22;2803;47.916;8.074;2023-03-12T05:18:39;6.90;99.90
5560;DHT22;2803;47.916;8.074;2023-03-12T05:21:07;6.80;99.90
5560;DHT22;2803;47.916;8.074;2023-03-12T05:23:34;6.90;99.90
5560;DHT22;2803;47.916;8.074;2023-03-12T05:26:04;6.90;99.90
5560;DHT22;2803;47.916;8.074;2023-03-12T05:28:31;6.60;99.90
5560;DHT22;2803;47.916;8.074;2023-03-12T05:30:59;6.80;99.90
5560;DHT22;2803;47.916;8.074;2023-03-12T05:33:26;6.60;99.90
5560;DHT22;2803;47.916;8.074;2023-03-12T05:35:54;6.70;99.90
5560;DHT22;2803;47.916;8.074;2023-03-12T05:38:21;6.60;99.90
5560;DHT22;2803;47.916;8.074;2023-03-12T05:40:51;6.90;99.90
5560;DHT22;2803;47.916;8.074;2023-03-12T05:43:18;6.90;99.90
5560;DHT22;2803;47.916;8.074;2023-03-12T05:45:46;6.70;99.90
5560;DHT22;2803;47.916;8.074;2023-03-12T05:48:13;6.90;99.90
5560;DHT22;2803;47.916;8.074;2023-03-12T05:50:39;7.10;99.90
5560;DHT22;2803;47.916;8.074;2023-03-12T05:53:07;7.20;99.90
5560;DHT22;2803;47.916;8.074;2023-03-12T05:55:34;7.30;99.90
5560;DHT22;2803;47.916;8.074;2023-03-12T05:58:02;7.30;99.90
5560;DHT22;2803;47.916;8.074;2023-03-12T06:00:29;7.50;99.90
5560;DHT22;2803;47.916;8.074;2023-03-12T06:02:55;6.80;99.90
5560;DHT22;2803;47.916;8.074;2023-03-12T06:05:22;6.50;99.90
5560;DHT22;2803;47.916;8.074;2023-03-12T06:07:49;6.60;99.90
5560;DHT22;2803;47.916;8.074;2023-03-12T06:10:17;7.00;99.90
5560;DHT22;2803;47.916;8.074;2023-03-12T06:12:43;6.90;99.90
5560;DHT22;2803;47.916;8.074;2023-03-12T06:15:10;7.10;99.90
5560;DHT22;2803;47.916;8.074;2023-03-12T06:17:37;7.30;99.90
5560;DHT22;2803;47.916;8.074;2023-03-12T06:20:04;7.30;99.90
5560;DHT22;2803;47.916;8.074;2023-03-12T06:22:31;7.40;99.90
5560;DHT22;2803;47.916;8.074;2023-03-12T06:24:57;6.90;99.90
5560;DHT22;2803;47.916;8.074;2023-03-12T06:27:26;7.00;99.90
5560;DHT22;2803;47.916;8.074;2023-03-12T06:29:52;7.20;99.90
5560;DHT22;2803;47.916;8.074;2023-03-12T06:32:19;7.30;99.90
5560;DHT22;2803;47.916;8.074;2023-03-12T06:34:46;7.40;99.90
5560;DHT22;2803;47.916;8.074;2023-03-12T06:37:12;7.40;99.90
5560;DHT22;2803;47.916;8.074;2023-03-12T06:39:40;7.30;99.90
5560;DHT22;2803;47.916;8.074;2023-03-12T06:42:06;7.50;99.90
5560;DHT22;2803;47.916;8.074;2023-03-12T06:44:34;7.50;99.90
5560;DHT22;2803;47.916;8.074;2023-03-12T06:47:01;7.80;99.90
5560;DHT22;2803;47.916;8.074;2023-03-12T06:49:28;7.60;99.90
5560;DHT22;2803;47.916;8.074;2023-03-12T06:51:57;7.80;99.90
5560;DHT22;2803;47.916;8.074;2023-03-12T06:54:24;7.90;99.90
5560;DHT22;2803;47.916;8.074;2023-03-12T06:56:50;8.10;99.90
5560;DHT22;2803;47.916;8.074;2023-03-12T06:59:17;7.50;99.90
5560;DHT22;2803;47.916;8.074;2023-03-12T07:01:47;7.50;99.90
5560;DHT22;2803;47.916;8.074;2023-03-12T07:04:13;8.00;99.90
5560;DHT22;2803;47.916;8.074;2023-03-12T07:06:40;8.30;99.90
5560;DHT22;2803;47.916;8.074;2023-03-12T07:09:07;8.30;99.90
5560;DHT22;2803;47.916;8.074;2023-03-12T07:11:33;8.30;99.90
5560;DHT22;2803;47.916;8.074;2023-03-12T07:14:00;8.70;99.90
5560;DHT22;2803;47.916;8.074;2023-03-12T07:16:27;8.90;99.90
5560;DHT22;2803;47.916;8.074;2023-03-12T07:18:55;9.20;99.90
5560;DHT22;2803;47.916;8.074;2023-03-12T07:21:22;9.00;99.90
5560;DHT22;2803;47.916;8.074;2023-03-12T07:23:49;9.30;99.90
5560;DHT22;2803;47.916;8.074;2023-03-12T07:26:16;9.30;99.90
5560;DHT22;2803;47.916;8.074;2023-03-12T07:28:42;9.50;99.90
5560;DHT22;2803;47.916;8.074;2023-03-12T07:31:09;9.40;99.90
5560;DHT22;2803;47.916;8.074;2023-03-12T07:33:37;9.40;99.90
5560;DHT22;2803;47.916;8.074;2023-03-12T07:36:06;9.30;99.90
5560;DHT22;2803;47.916;8.074;2023-03-12T07:38:33;9.50;99.90
5560;DHT22;2803;47.916;8.074;2023-03-12T07:40:59;9.70;99.90
5560;DHT22;2803;47.916;8.074;2023-03-12T07:43:26;9.80;99.90
5560;DHT22;2803;47.916;8.074;2023-03-12T07:45:52;9.30;99.90
5560;DHT22;2803;47.916;8.074;2023-03-12T07:48:19;9.50;99.90
5560;DHT22;2803;47.916;8.074;2023-03-12T07:50:46;9.50;99.90
5560;DHT22;2803;47.916;8.074;2023-03-12T07:53:15;9.60;99.90
5560;DHT22;2803;47.916;8.074;2023-03-12T07:55:43;9.60;99.90
5560;DHT22;2803;47.916;8.074;2023-03-12T07:58:10;10.00;99.90
5560;DHT22;2803;47.916;8.074;2023-03-12T08:00:38;9.80;99.90
5560;DHT22;2803;47.916;8.074;2023-03-12T08:03:04;9.30;99.90
5560;DHT22;2803;47.916;8.074;2023-03-12T08:05:31;9.10;99.90
5560;DHT22;2803;47.916;8.074;2023-03-12T08:07:57;9.40;99.90
5560;DHT22;2803;47.916;8.074;2023-03-12T08:10:25;9.50;99.90
5560;DHT22;2803;47.916;8.074;2023-03-12T08:12:52;9.50;99.90
5560;DHT22;2803;47.916;8.074;2023-03-12T08:15:19;9.40;99.90
5560;DHT22;2803;47.916;8.074;2023-03-12T08:17:45;9.80;99.90
5560;DHT22;2803;47.916;8.074;2023-03-12T08:20:13;9.80;99.90
5560;DHT22;2803;47.916;8.074;2023-03-12T08:22:40;10.10;99.90
5560;DHT22;2803;47.916;8.074;2023-03-12T08:25:07;10.30;99.90
5560;DHT22;2803;47.916;8.074;2023-03-12T08:27:36;10.80;99.90
5560;DHT22;2803;47.916;8.074;2023-03-12T08:30:03;10.60;99.90
5560;DHT22;2803;47.916;8.074;2023-03-12T08:32:30;10.70;99.90
5560;DHT22;2803;47.916;8.074;2023-03-12T08:34:57;10.50;99.90
5560;DHT22;2803;47.916;8.074;2023-03-12T08:37:24;10.70;99.90
5560;DHT22;2803;47.916;8.074;2023-03-12T08:39:50;10.60;99.90
5560;DHT22;2803;47.916;8.074;2023-03-12T08:42:17;10.70;99.90
5560;DHT22;2803;47.916;8.074;2023-03-12T08:44:45;10.50;99.90
5560;DHT22;2803;47.916;8.074;2023-03-12T08:47:13;10.50;99.90
5560;DHT22;2803;47.916;8.074;2023-03-12T08:49:40;10.70;99.90
5560;DHT22;2803;47.916;8.074;2023-03-12T08:52:07;10.70;99.90
5560;DHT22;2803;47.916;8.074;2023-03-12T08:54:33;11.00;99.90
5560;DHT22;2803;47.916;8.074;2023-03-12T08:57:00;10.50;99.90
5560;DHT22;2803;47.916;8.074;2023-03-12T08:59:26;10.40;99.90
5560;DHT22;2803;47.916;8.074;2023-03-12T09:01:54;10.50;99.90
5560;DHT22;2803;47.916;8.074;2023-03-12T09:04:21;10.40;99.90
5560;DHT22;2803;47.916;8.074;2023-03-12T09:06:47;10.40;99.90
5560;DHT22;2803;47.916;8.074;2023-03-12T09:09:14;10.40;99.90
5560;DHT22;2803;47.916;8.074;2023-03-12T09:11:41;10.40;99.90
5560;DHT22;2803;47.916;8.074;2023-03-12T09:14:07;10.50;99.90
5560;DHT22;2803;47.916;8.074;2023-03-12T09:16:34;10.20;99.90
5560;DHT22;2803;47.916;8.074;2023-03-12T09:19:03;10.40;99.90
5560;DHT22;2803;47.916;8.074;2023-03-12T09:21:30;10.50;99.90
5560;DHT22;2803;47.916;8.074;2023-03-12T09:23:56;10.60;99.90
5560;DHT22;2803;47.916;8.074;2023-03-12T09:26:23;10.40;99.90
5560;DHT22;2803;47.916;8.074;2023-03-12T09:28:50;10.40;99.90
5560;DHT22;2803;47.916;8.074;2023-03-12T09:31:16;10.60;99.90
5560;DHT22;2803;47.916;8.074;2023-03-12T09:33:43;11.00;99.90
5560;DHT22;2803;47.916;8.074;2023-03-12T09:36:11;10.70;99.90
5560;DHT22;2803;47.916;8.074;2023-03-12T09:38:37;10.60;99.90
5560;DHT22;2803;47.916;8.074;2023-03-12T09:41:05;10.40;99.90
5560;DHT22;2803;47.916;8.074;2023-03-12T09:43:36;10.00;99.90
5560;DHT22;2803;47.916;8.074;2023-03-12T09:46:10;10.20;99.90
5560;DHT22;2803;47.916;8.074;2023-03-12T09:48:37;10.20;99.90
5560;DHT22;2803;47.916;8.074;2023-03-12T09:51:08;10.40;99.90
5560;DHT22;2803;47.916;8.074;2023-03-12T09:53:43;10.50;99.90
5560;DHT22;2803;47.916;8.074;2023-03-12T09:56:14;10.80;99.90
5560;DHT22;2803;47.916;8.074;2023-03-12T09:58:42;10.90;99.90
5560;DHT22;2803;47.916;8.074;2023-03-12T10:01:24;10.70;99.90
5560;DHT22;2803;47.916;8.074;2023-03-12T10:04:03;10.90;99.90
5560;DHT22;2803;47.916;8.074;2023-03-12T10:06:35;11.00;99.90
5560;DHT22;2803;47.916;8.074;2023-03-12T10:09:18;10.70;99.90
5560;DHT22;2803;47.916;8.074;2023-03-12T10:11:51;10.80;99.90
5560;DHT22;2803;47.916;8.074;2023-03-12T10:14:30;10.80;99.90
5560;DHT22;2803;47.916;8.074;2023-03-12T10:17:09;11.00;99.90
5560;DHT22;2803;47.916;8.074;2023-03-12T10:19:55;10.90;99.90
5560;DHT22;2803;47.916;8.074;2023-03-12T10:22:32;10.60;99.90
5560;DHT22;2803;47.916;8.074;2023-03-12T10:25:17;10.50;99.90
5560;DHT22;2803;47.916;8.074;2023-03-12T10:27:45;10.80;99.90
5560;DHT22;2803;47.916;8.074;2023-03-12T10:30:16;10.90;99.90
5560;DHT22;2803;47.916;8.074;2023-03-12T10:32:45;10.80;99.90
5560;DHT22;2803;47.916;8.074;2023-03-12T10:35:15;11.10;99.90
5560;DHT22;2803;47.916;8.074;2023-03-12T10:37:46;11.00;99.90
5560;DHT22;2803;47.916;8.074;2023-03-12T10:40:18;10.70;99.90
5560;DHT22;2803;47.916;8.074;2023-03-12T10:42:45;10.70;99.90
5560;DHT22;2803;47.916;8.074;2023-03-12T10:45:20;10.60;99.90
5560;DHT22;2803;47.916;8.074;2023-03-12T10:47:50;10.60;99.90
5560;DHT22;2803;47.916;8.074;2023-03-12T10:50:24;10.80;99.90
5560;DHT22;2803;47.916;8.074;2023-03-12T10:52:52;11.00;99.90
5560;DHT22;2803;47.916;8.074;2023-03-12T10:55:38;10.90;99.90
5560;DHT22;2803;47.916;8.074;2023-03-12T10:58:05;10.80;99.90
5560;DHT22;2803;47.916;8.074;2023-03-12T11:00:32;10.90;99.90
5560;DHT22;2803;47.916;8.074;2023-03-12T11:03:00;10.60;99.90
5560;DHT22;2803;47.916;8.074;2023-03-12T11:05:30;10.20;99.90
5560;DHT22;2803;47.916;8.074;2023-03-12T11:07:57;10.10;99.90
5560;DHT22;2803;47.916;8.074;2023-03-12T11:10:40;10.40;99.90
5560;DHT22;2803;47.916;8.074;2023-03-12T11:13:22;10.50;99.90
5560;DHT22;2803;47.916;8.074;2023-03-12T11:15:49;10.60;99.90
5560;DHT22;2803;47.916;8.074;2023-03-12T11:18:20;10.60;99.90
5560;DHT22;2803;47.916;8.074;2023-03-12T11:20:48;10.70;99.90
5560;DHT22;2803;47.916;8.074;2023-03-12T11:23:20;11.00;99.90
5560;DHT22;2803;47.916;8.074;2023-03-12T11:25:52;11.00;99.90
5560;DHT22;2803;47.916;8.074;2023-03-12T11:28:23;10.70;99.90
5560;DHT22;2803;47.916;8.074;2023-03-12T11:30:52;10.50;99.90
5560;DHT22;2803;47.916;8.074;2023-03-12T11:33:19;10.70;99.90
5560;DHT22;2803;47.916;8.074;2023-03-12T11:35:55;10.70;99.90
5560;DHT22;2803;47.916;8.074;2023-03-12T11:38:30;10.90;99.90
5560;DHT22;2803;47.916;8.074;2023-03-12T11:41:09;11.10;99.90
5560;DHT22;2803;47.916;8.074;2023-03-12T11:43:50;10.80;99.90
5560;DHT22;2803;47.916;8.074;2023-03-12T11:46:29;10.80;99.90
5560;DHT22;2803;47.916;8.074;2023-03-12T11:49:08;10.90;99.90
5560;DHT22;2803;47.916;8.074;2023-03-12T11:51:45;11.00;99.90
5560;DHT22;2803;47.916;8.074;2023-03-12T11:54:24;10.80;99.90
5560;DHT22;2803;47.916;8.074;2023-03-12T11:56:55;11.10;99.90
5560;DHT22;2803;47.916;8.074;2023-03-12T11:59:34;11.20;99.90
5560;DHT22;2803;47.916;8.074;2023-03-12T12:02:13;12.00;99.90
5560;DHT22;2803;47.916;8.074;2023-03-12T12:04:53;13.40;99.90
5560;DHT22;2803;47.916;8.074;2023-03-12T12:07:35;13.60;99.90
5560;DHT22;2803;47.916;8.074;2023-03-12T12:10:13;13.80;99.90
5560;DHT22;2803;47.916;8.074;2023-03-12T12:12:52;13.80;99.90
5560;DHT22;2803;47.916;8.074;2023-03-12T12:15:30;13.20;99.90
5560;DHT22;2803;47.916;8.074;2023-03-12T12:18:10;13.20;99.90
5560;DHT22;2803;47.916;8.074;2023-03-12T12:20:44;13.00;99.90
5560;DHT22;2803;47.916;8.074;2023-03-12T12:23:16;12.60;99.90
5560;DHT22;2803;47.916;8.074;2023-03-12T12:26:02;12.80;99.90
5560;DHT22;2803;47.916;8.074;2023-03-12T12:28:44;12.40;99.90
5560;DHT22;2803;47.916;8.074;2023-03-12T12:31:23;12.30;99.90
5560;DHT22;2803;47.916;8.074;2023-03-12T12:34:05;12.20;99.90
5560;DHT22;2803;47.916;8.074;2023-03-12T12:36:35;12.70;99.90
5560;DHT22;2803;47.916;8.074;2023-03-12T12:39:09;12.20;99.90
5560;DHT22;2803;47.916;8.074;2023-03-12T12:41:41;11.80;99.90
5560;DHT22;2803;47.916;8.074;2023-03-12T12:44:14;11.90;99.90
5560;DHT22;2803;47.916;8.074;2023-03-12T12:46:45;12.30;99.90
5560;DHT22;2803;47.916;8.074;2023-03-12T12:49:20;12.00;99.90
5560;DHT22;2803;47.916;8.074;2023-03-12T12:51:52;12.10;99.90
5560;DHT22;2803;47.916;8.074;2023-03-12T12:54:27;11.70;99.90
5560;DHT22;2803;47.916;8.074;2023-03-12T12:57:02;11.90;99.90
5560;DHT22;2803;47.916;8.074;2023-03-12T12:59:34;11.90;99.90
5560;DHT22;2803;47.916;8.074;2023-03-12T13:02:10;11.90;99.90
5560;DHT22;2803;47.916;8.074;2023-03-12T13:04:42;12.00;99.90
5560;DHT22;2803;47.916;8.074;2023-03-12T13:07:28;12.40;99.90
5560;DHT22;2803;47.916;8.074;2023-03-12T13:09:57;12.20;99.90
5560;DHT22;2803;47.916;8.074;2023-03-12T13:12:29;12.50;99.90
5560;DHT22;2803;47.916;8.074;2023-03-12T13:15:00;12.40;99.90
5560;DHT22;2803;47.916;8.074;2023-03-12T13:17:29;12.10;99.90
5560;DHT22;2803;47.916;8.074;2023-03-12T13:20:04;12.40;99.90
5560;DHT22;2803;47.916;8.074;2023-03-12T13:22:48;12.30;99.90
5560;DHT22;2803;47.916;8.074;2023-03-12T13:25:25;11.90;99.90
5560;DHT22;2803;47.916;8.074;2023-03-12T13:27:59;11.90;99.90
5560;DHT22;2803;47.916;8.074;2023-03-12T13:30:44;11.70;99.90
5560;DHT22;2803;47.916;8.074;2023-03-12T13:33:13;11.90;99.90
5560;DHT22;2803;47.916;8.074;2023-03-12T13:35:40;11.80;99.90
5560;DHT22;2803;47.916;8.074;2023-03-12T13:38:10;11.40;99.90
5560;DHT22;2803;47.916;8.074;2023-03-12T13:40:52;11.80;99.90
5560;DHT22;2803;47.916;8.074;2023-03-12T13:43:40;11.70;99.90
5560;DHT22;2803;47.916;8.074;2023-03-12T13:46:26;11.10;99.90
5560;DHT22;2803;47.916;8.074;2023-03-12T13:48:56;10.90;99.90
5560;DHT22;2803;47.916;8.074;2023-03-12T13:51:25;11.30;99.90
5560;DHT22;2803;47.916;8.074;2023-03-12T13:53:54;11.90;99.90
5560;DHT22;2803;47.916;8.074;2023-03-12T13:56:26;11.80;99.90
5560;DHT22;2803;47.916;8.074;2023-03-12T13:58:55;11.80;99.90
5560;DHT22;2803;47.916;8.074;2023-03-12T14:01:27;12.10;99.90
5560;DHT22;2803;47.916;8.074;2023-03-12T14:03:56;11.50;99.90
5560;DHT22;2803;47.916;8.074;2023-03-12T14:06:26;11.80;99.90
5560;DHT22;2803;47.916;8.074;2023-03-12T14:09:08;12.00;99.90
5560;DHT22;2803;47.916;8.074;2023-03-12T14:11:46;11.60;99.90
5560;DHT22;2803;47.916;8.074;2023-03-12T14:14:34;11.30;99.90
5560;DHT22;2803;47.916;8.074;2023-03-12T14:17:13;11.80;99.90
5560;DHT22;2803;47.916;8.074;2023-03-12T14:19:46;11.90;99.90
5560;DHT22;2803;47.916;8.074;2023-03-12T14:22:14;12.10;99.90
5560;DHT22;2803;47.916;8.074;2023-03-12T14:24:48;12.80;99.90
5560;DHT22;2803;47.916;8.074;2023-03-12T14:27:18;13.00;99.90
5560;DHT22;2803;47.916;8.074;2023-03-12T14:29:51;13.50;99.90
5560;DHT22;2803;47.916;8.074;2023-03-12T14:32:22;13.30;99.90
5560;DHT22;2803;47.916;8.074;2023-03-12T14:34:52;13.10;99.90
5560;DHT22;2803;47.916;8.074;2023-03-12T14:37:23;12.80;99.90
5560;DHT22;2803;47.916;8.074;2023-03-12T14:39:52;12.60;99.90
5560;DHT22;2803;47.916;8.074;2023-03-12T14:42:22;12.40;99.90
5560;DHT22;2803;47.916;8.074;2023-03-12T14:44:55;12.70;99.90
5560;DHT22;2803;47.916;8.074;2023-03-12T14:47:23;12.60;99.90
5560;DHT22;2803;47.916;8.074;2023-03-12T14:49:50;12.50;99.90
5560;DHT22;2803;47.916;8.074;2023-03-12T14:52:21;12.20;99.90
5560;DHT22;2803;47.916;8.074;2023-03-12T14:54:57;12.60;99.90
5560;DHT22;2803;47.916;8.074;2023-03-12T14:57:24;12.40;99.90
5560;DHT22;2803;47.916;8.074;2023-03-12T14:59:52;12.40;99.90
5560;DHT22;2803;47.916;8.074;2023-03-12T15:02:20;12.40;99.90
5560;DHT22;2803;47.916;8.074;2023-03-12T15:04:51;12.70;99.90
5560;DHT22;2803;47.916;8.074;2023-03-12T15:07:22;12.30;99.90
5560;DHT22;2803;47.916;8.074;2023-03-12T15:09:50;12.30;99.90
5560;DHT22;2803;47.916;8.074;2023-03-12T15:12:19;12.20;99.90
5560;DHT22;2803;47.916;8.074;2023-03-12T15:14:48;12.00;99.90
5560;DHT22;2803;47.916;8.074;2023-03-12T15:17:17;12.50;99.90
5560;DHT22;2803;47.916;8.074;2023-03-12T15:19:45;12.40;99.90
5560;DHT22;2803;47.916;8.074;2023-03-12T15:22:16;12.70;99.90
5560;DHT22;2803;47.916;8.074;2023-03-12T15:24:45;13.00;99.90
5560;DHT22;2803;47.916;8.074;2023-03-12T15:27:28;12.70;99.90
5560;DHT22;2803;47.916;8.074;2023-03-12T15:29:57;12.70;99.90
5560;DHT22;2803;47.916;8.074;2023-03-12T15:32:24;12.40;99.90
5560;DHT22;2803;47.916;8.074;2023-03-12T15:34:52;12.20;99.90
5560;DHT22;2803;47.916;8.074;2023-03-12T15:37:23;12.40;99.90
5560;DHT22;2803;47.916;8.074;2023-03-12T15:39:54;12.70;99.90
5560;DHT22;2803;47.916;8.074;2023-03-12T15:42:22;12.50;99.90
5560;DHT22;2803;47.916;8.074;2023-03-12T15:44:51;12.60;99.90
5560;DHT22;2803;47.916;8.074;2023-03-12T15:47:20;12.40;99.90
5560;DHT22;2803;47.916;8.074;2023-03-12T15:49:49;12.20;99.90
5560;DHT22;2803;47.916;8.074;2023-03-12T15:52:28;12.00;99.90
5560;DHT22;2803;47.916;8.074;2023-03-12T15:55:01;12.20;99.90
5560;DHT22;2803;47.916;8.074;2023-03-12T15:57:29;11.90;99.90
5560;DHT22;2803;47.916;8.074;2023-03-12T16:00:13;12.20;99.90
5560;DHT22;2803;47.916;8.074;2023-03-12T16:02:47;12.00;99.90
5560;DHT22;2803;47.916;8.074;2023-03-12T16:05:14;11.90;99.90
5560;DHT22;2803;47.916;8.074;2023-03-12T16:07:42;12.30;99.90
5560;DHT22;2803;47.916;8.074;2023-03-12T16:10:11;12.70;99.90
5560;DHT22;2803;47.916;8.074;2023-03-12T16:12:38;12.60;99.90
5560;DHT22;2803;47.916;8.074;2023-03-12T16:15:06;12.40;99.90
5560;DHT22;2803;47.916;8.074;2023-03-12T16:17:32;12.40;99.90
5560;DHT22;2803;47.916;8.074;2023-03-12T16:19:59;12.20;99.90
5560;DHT22;2803;47.916;8.074;2023-03-12T16:22:25;12.50;99.90
5560;DHT22;2803;47.916;8.074;2023-03-12T16:24:54;12.60;99.90